sensor_id;sensor_type;location;lat;lon;timestamp;pressure;altitude;pressure_sealevel;temperature;humidity
34506;BME280;20748;42.632;23.198;2023-04-25T00:01:11;91310.72;;;9.45;100.00
34506;BME280;20748;42.632;23.198;2023-04-25T00:03:44;91299.41;;;9.50;100.00
34506;BME280;20748;42.632;23.198;2023-04-25T00:06:17;91290.97;;;9.53;100.00
34506;BME280;20748;42.632;23.198;2023-04-25T00:08:50;91282.41;;;9.44;100.00
34506;BME280;20748;42.632;23.198;2023-04-25T00:11:23;91272.44;;;9.54;100.00
34506;BME280;20748;42.632;23.198;2023-04-25T00:13:55;91275.00;;;9.63;100.00
34506;BME280;20748;42.632;23.198;2023-04-25T00:16:28;91273.34;;;9.67;100.00
34506;BME280;20748;42.632;23.198;2023-04-25T00:19:04;91272.84;;;9.65;100.00
34506;BME280;20748;42.632;23.198;2023-04-25T00:21:38;91277.94;;;9.44;100.00
34506;BME280;20748;42.632;23.198;2023-04-25T00:24:12;91262.47;;;9.39;100.00
34506;BME280;20748;42.632;23.198;2023-04-25T00:26:45;91262.78;;;9.46;100.00
34506;BME280;20748;42.632;23.198;2023-04-25T00:29:17;91258.34;;;9.47;100.00
34506;BME280;20748;42.632;23.198;2023-04-25T00:31:50;91256.97;;;9.49;100.00
34506;BME280;20748;42.632;23.198;2023-04-25T00:34:22;91251.91;;;9.53;100.00
34506;BME280;20748;42.632;23.198;2023-04-25T00:36:55;91258.06;;;9.31;100.00
34506;BME280;20748;42.632;23.198;2023-04-25T00:39:28;91261.59;;;9.17;100.00
34506;BME280;20748;42.632;23.198;2023-04-25T00:42:02;91247.66;;;8.86;100.00
34506;BME280;20748;42.632;23.198;2023-04-25T00:44:35;91253.28;;;8.80;100.00
34506;BME280;20748;42.632;23.198;2023-04-25T00:47:08;91252.09;;;8.95;100.00
34506;BME280;20748;42.632;23.198;2023-04-25T00:49:41;91244.91;;;8.83;100.00
34506;BME280;20748;42.632;23.198;2023-04-25T00:52:13;91239.69;;;8.92;100.00
34506;BME280;20748;42.632;23.198;2023-04-25T00:54:46;91245.66;;;8.92;100.00
34506;BME280;20748;42.632;23.198;2023-04-25T00:57:19;91233.28;;;8.98;100.00
34506;BME280;20748;42.632;23.198;2023-04-25T00:59:52;91234.78;;;9.08;100.00
34506;BME280;20748;42.632;23.198;2023-04-25T01:02:26;91221.63;;;9.13;100.00
34506;BME280;20748;42.632;23.198;2023-04-25T01:04:59;91211.81;;;9.10;100.00
34506;BME280;20748;42.632;23.198;2023-04-25T01:07:32;91210.63;;;9.16;100.00
34506;BME280;20748;42.632;23.198;2023-04-25T01:10:05;91206.47;;;9.15;100.00
34506;BME280;20748;42.632;23.198;2023-04-25T01:12:39;91208.47;;;9.18;100.00
34506;BME280;20748;42.632;23.198;2023-04-25T01:15:11;91207.53;;;9.14;100.00
34506;BME280;20748;42.632;23.198;2023-04-25T01:17:44;91210.00;;;9.02;100.00
34506;BME280;20748;42.632;23.198;2023-04-25T01:20:16;91211.38;;;9.08;100.00
34506;BME280;20748;42.632;23.198;2023-04-25T01:22:50;91214.75;;;8.99;100.00
34506;BME280;20748;42.632;23.198;2023-04-25T01:25:23;91216.88;;;8.89;100.00
34506;BME280;20748;42.632;23.198;2023-04-25T01:27:56;91219.81;;;8.96;100.00
34506;BME280;20748;42.632;23.198;2023-04-25T01:30:28;91214.13;;;8.94;100.00
34506;BME280;20748;42.632;23.198;2023-04-25T01:33:01;91213.84;;;8.95;100.00
34506;BME280;20748;42.632;23.198;2023-04-25T01:35:36;91211.38;;;8.99;100.00
34506;BME280;20748;42.632;23.198;2023-04-25T01:38:09;91212.16;;;8.99;100.00
34506;BME280;20748;42.632;23.198;2023-04-25T01:40:43;91204.50;;;8.94;100.00
34506;BME280;20748;42.632;23.198;2023-04-25T01:43:16;91210.00;;;8.93;100.00
34506;BME280;20748;42.632;23.198;2023-04-25T01:45:49;91214.28;;;8.97;100.00
34506;BME280;20748;42.632;23.198;2023-04-25T01:48:22;91209.69;;;9.03;100.00
34506;BME280;20748;42.632;23.198;2023-04-25T01:50:54;91204.19;;;9.05;100.00
34506;BME280;20748;42.632;23.198;2023-04-25T01:53:27;91201.41;;;9.10;100.00
34506;BME280;20748;42.632;23.198;2023-04-25T01:56:00;91204.19;;;9.13;100.00
34506;BME280;20748;42.632;23.198;2023-04-25T01:58:38;91210.16;;;9.14;100.00
34506;BME280;20748;42.632;23.198;2023-04-25T02:01:25;91205.41;;;9.16;100.00
34506;BME280;20748;42.632;23.198;2023-04-25T02:04:15;91205.09;;;9.18;100.00
34506;BME280;20748;42.632;23.198;2023-04-25T02:06:49;91197.28;;;9.18;100.00
34506;BME280;20748;42.632;23.198;2023-04-25T02:09:22;91194.22;;;9.24;100.00
34506;BME280;20748;42.632;23.198;2023-04-25T02:11:59;91197.91;;;9.23;100.00
34506;BME280;20748;42.632;23.198;2023-04-25T02:14:38;91189.63;;;9.12;100.00
34506;BME280;20748;42.632;23.198;2023-04-25T02:17:26;91181.19;;;9.24;100.00
34506;BME280;20748;42.632;23.198;2023-04-25T02:19:58;91190.97;;;9.27;100.00
34506;BME280;20748;42.632;23.198;2023-04-25T02:22:32;91191.63;;;9.07;100.00
34506;BME280;20748;42.632;23.198;2023-04-25T02:25:07;91194.69;;;9.18;100.00
34506;BME280;20748;42.632;23.198;2023-04-25T02:27:40;91192.06;;;9.18;100.00
34506;BME280;20748;42.632;23.198;2023-04-25T02:30:13;91191.50;;;9.03;100.00
34506;BME280;20748;42.632;23.198;2023-04-25T02:32:46;91188.75;;;8.99;100.00
34506;BME280;20748;42.632;23.198;2023-04-25T02:35:19;91187.19;;;9.16;100.00
34506;BME280;20748;42.632;23.198;2023-04-25T02:37:51;91187.34;;;9.11;100.00
34506;BME280;20748;42.632;23.198;2023-04-25T02:40:24;91181.81;;;9.12;100.00
34506;BME280;20748;42.632;23.198;2023-04-25T02:42:59;91182.31;;;9.06;100.00
34506;BME280;20748;42.632;23.198;2023-04-25T02:45:31;91185.81;;;9.10;100.00
34506;BME280;20748;42.632;23.198;2023-04-25T02:48:04;91183.66;;;9.12;100.00
34506;BME280;20748;42.632;23.198;2023-04-25T02:50:37;91183.97;;;9.10;100.00
34506;BME280;20748;42.632;23.198;2023-04-25T02:53:09;91178.16;;;9.13;100.00
34506;BME280;20748;42.632;23.198;2023-04-25T02:55:50;91173.56;;;9.19;100.00
34506;BME280;20748;42.632;23.198;2023-04-25T02:58:24;91183.53;;;8.91;100.00
34506;BME280;20748;42.632;23.198;2023-04-25T03:00:58;91175.75;;;8.91;100.00
34506;BME280;20748;42.632;23.198;2023-04-25T03:03:30;91171.44;;;8.86;100.00
34506;BME280;20748;42.632;23.198;2023-04-25T03:06:03;91176.97;;;8.84;100.00
34506;BME280;20748;42.632;23.198;2023-04-25T03:08:38;91179.09;;;8.91;100.00
34506;BME280;20748;42.632;23.198;2023-04-25T03:11:11;91176.47;;;9.00;100.00
34506;BME280;20748;42.632;23.198;2023-04-25T03:13:43;91173.13;;;9.08;100.00
34506;BME280;20748;42.632;23.198;2023-04-25T03:16:16;91172.81;;;8.92;100.00
34506;BME280;20748;42.632;23.198;2023-04-25T03:18:49;91168.69;;;8.91;100.00
34506;BME280;20748;42.632;23.198;2023-04-25T03:21:23;91176.50;;;8.82;100.00
34506;BME280;20748;42.632;23.198;2023-04-25T03:23:56;91174.50;;;9.06;100.00
34506;BME280;20748;42.632;23.198;2023-04-25T03:26:29;91171.88;;;9.15;100.00
34506;BME280;20748;42.632;23.198;2023-04-25T03:29:02;91172.03;;;9.09;100.00
34506;BME280;20748;42.632;23.198;2023-04-25T03:31:34;91170.81;;;9.07;100.00
34506;BME280;20748;42.632;23.198;2023-04-25T03:34:07;91169.31;;;8.97;100.00
34506;BME280;20748;42.632;23.198;2023-04-25T03:36:39;91161.00;;;9.12;100.00
34506;BME280;20748;42.632;23.198;2023-04-25T03:39:13;91172.34;;;8.99;100.00
34506;BME280;20748;42.632;23.198;2023-04-25T03:41:51;91166.72;;;8.88;100.00
34506;BME280;20748;42.632;23.198;2023-04-25T03:44:24;91162.41;;;8.92;100.00
34506;BME280;20748;42.632;23.198;2023-04-25T03:46:57;91144.22;;;8.83;100.00
34506;BME280;20748;42.632;23.198;2023-04-25T03:49:30;91156.59;;;8.95;100.00
34506;BME280;20748;42.632;23.198;2023-04-25T03:52:07;91164.53;;;9.08;100.00
34506;BME280;20748;42.632;23.198;2023-04-25T03:54:43;91157.50;;;9.08;100.00
34506;BME280;20748;42.632;23.198;2023-04-25T03:57:20;91169.44;;;9.18;100.00
34506;BME280;20748;42.632;23.198;2023-04-25T03:59:52;91154.56;;;9.19;100.00
34506;BME280;20748;42.632;23.198;2023-04-25T04:02:24;91170.00;;;9.33;100.00
34506;BME280;20748;42.632;23.198;2023-04-25T04:04:58;91171.06;;;9.32;100.00
34506;BME280;20748;42.632;23.198;2023-04-25T04:07:31;91171.72;;;9.29;100.00
34506;BME280;20748;42.632;23.198;2023-04-25T04:10:06;91171.72;;;9.29;100.00
34506;BME280;20748;42.632;23.198;2023-04-25T04:12:42;91159.59;;;9.24;100.00
34506;BME280;20748;42.632;23.198;2023-04-25T04:15:15;91174.91;;;9.25;100.00
34506;BME280;20748;42.632;23.198;2023-04-25T04:17:49;91163.00;;;9.16;100.00
34506;BME280;20748;42.632;23.198;2023-04-25T04:20:23;91154.75;;;9.13;100.00
34506;BME280;20748;42.632;23.198;2023-04-25T04:22:55;91167.88;;;9.26;100.00
34506;BME280;20748;42.632;23.198;2023-04-25T04:25:29;91173.97;;;9.30;100.00
34506;BME280;20748;42.632;23.198;2023-04-25T04:28:13;91159.78;;;9.10;100.00
34506;BME280;20748;42.632;23.198;2023-04-25T04:31:06;91173.50;;;9.37;100.00
34506;BME280;20748;42.632;23.198;2023-04-25T04:33:39;91159.91;;;9.40;100.00
34506;BME280;20748;42.632;23.198;2023-04-25T04:36:13;91164.22;;;9.18;100.00
34506;BME280;20748;42.632;23.198;2023-04-25T04:38:45;91167.53;;;9.36;100.00
34506;BME280;20748;42.632;23.198;2023-04-25T04:41:26;91163.75;;;9.25;100.00
34506;BME280;20748;42.632;23.198;2023-04-25T04:44:13;91172.59;;;9.33;100.00
34506;BME280;20748;42.632;23.198;2023-04-25T04:47:05;91177.50;;;9.34;100.00
34506;BME280;20748;42.632;23.198;2023-04-25T04:49:58;91176.94;;;9.20;100.00
34506;BME280;20748;42.632;23.198;2023-04-25T04:52:49;91178.47;;;9.21;100.00
34506;BME280;20748;42.632;23.198;2023-04-25T04:55:48;91181.22;;;9.16;100.00
34506;BME280;20748;42.632;23.198;2023-04-25T04:58:47;91181.66;;;9.26;100.00
34506;BME280;20748;42.632;23.198;2023-04-25T05:01:27;91184.25;;;9.26;100.00
34506;BME280;20748;42.632;23.198;2023-04-25T05:04:11;91193.59;;;9.19;100.00
34506;BME280;20748;42.632;23.198;2023-04-25T05:06:46;91193.13;;;9.34;100.00
34506;BME280;20748;42.632;23.198;2023-04-25T05:09:20;91186.84;;;9.35;100.00
34506;BME280;20748;42.632;23.198;2023-04-25T05:12:20;91194.66;;;9.26;100.00
34506;BME280;20748;42.632;23.198;2023-04-25T05:15:12;91186.56;;;9.28;100.00
34506;BME280;20748;42.632;23.198;2023-04-25T05:17:45;91191.78;;;9.10;100.00
34506;BME280;20748;42.632;23.198;2023-04-25T05:20:41;91188.56;;;9.22;100.00
34506;BME280;20748;42.632;23.198;2023-04-25T05:23:16;91184.09;;;9.23;100.00
34506;BME280;20748;42.632;23.198;2023-04-25T05:26:24;91183.19;;;9.19;100.00
34506;BME280;20748;42.632;23.198;2023-04-25T05:29:02;91172.75;;;9.27;100.00
34506;BME280;20748;42.632;23.198;2023-04-25T05:31:44;91172.63;;;9.24;100.00
34506;BME280;20748;42.632;23.198;2023-04-25T05:34:20;91172.75;;;9.36;100.00
34506;BME280;20748;42.632;23.198;2023-04-25T05:37:00;91177.66;;;9.38;100.00
34506;BME280;20748;42.632;23.198;2023-04-25T05:39:36;91177.59;;;9.56;100.00
34506;BME280;20748;42.632;23.198;2023-04-25T05:42:34;91178.81;;;9.58;100.00
34506;BME280;20748;42.632;23.198;2023-04-25T05:45:28;91176.06;;;9.54;100.00
34506;BME280;20748;42.632;23.198;2023-04-25T05:48:09;91190.88;;;9.72;100.00
34506;BME280;20748;42.632;23.198;2023-04-25T05:51:08;91178.38;;;9.56;100.00
34506;BME280;20748;42.632;23.198;2023-04-25T05:54:04;91192.75;;;9.62;100.00
34506;BME280;20748;42.632;23.198;2023-04-25T05:56:38;91185.56;;;9.59;100.00
34506;BME280;20748;42.632;23.198;2023-04-25T05:59:11;91182.78;;;9.64;100.00
34506;BME280;20748;42.632;23.198;2023-04-25T06:01:43;91197.34;;;9.57;100.00
34506;BME280;20748;42.632;23.198;2023-04-25T06:04:15;91184.50;;;9.60;100.00
34506;BME280;20748;42.632;23.198;2023-04-25T06:06:49;91192.41;;;9.73;100.00
34506;BME280;20748;42.632;23.198;2023-04-25T06:09:22;91192.66;;;9.89;100.00
34506;BME280;20748;42.632;23.198;2023-04-25T06:11:54;91184.25;;;9.83;100.00
34506;BME280;20748;42.632;23.198;2023-04-25T06:14:27;91181.19;;;9.81;100.00
34506;BME280;20748;42.632;23.198;2023-04-25T06:17:01;91178.44;;;9.77;100.00
34506;BME280;20748;42.632;23.198;2023-04-25T06:19:38;91178.91;;;9.79;100.00
34506;BME280;20748;42.632;23.198;2023-04-25T06:22:11;91180.25;;;9.86;100.00
34506;BME280;20748;42.632;23.198;2023-04-25T06:24:45;91175.25;;;10.11;100.00
34506;BME280;20748;42.632;23.198;2023-04-25T06:27:18;91176.38;;;10.22;100.00
34506;BME280;20748;42.632;23.198;2023-04-25T06:29:51;91175.09;;;10.37;100.00
34506;BME280;20748;42.632;23.198;2023-04-25T06:32:23;91179.03;;;10.52;100.00
34506;BME280;20748;42.632;23.198;2023-04-25T06:35:00;91177.88;;;10.62;100.00
34506;BME280;20748;42.632;23.198;2023-04-25T06:37:33;91188.56;;;10.69;100.00
34506;BME280;20748;42.632;23.198;2023-04-25T06:40:08;91188.06;;;10.76;100.00
34506;BME280;20748;42.632;23.198;2023-04-25T06:42:40;91185.44;;;10.97;100.00
34506;BME280;20748;42.632;23.198;2023-04-25T06:45:44;91187.59;;;10.95;99.12
34506;BME280;20748;42.632;23.198;2023-04-25T06:48:19;91190.81;;;10.80;97.24
34506;BME280;20748;42.632;23.198;2023-04-25T06:50:52;91178.44;;;10.89;100.00
34506;BME280;20748;42.632;23.198;2023-04-25T06:53:25;91187.03;;;10.90;98.24
34506;BME280;20748;42.632;23.198;2023-04-25T06:56:04;91188.81;;;10.77;97.11
34506;BME280;20748;42.632;23.198;2023-04-25T06:58:55;91188.88;;;10.68;100.00
34506;BME280;20748;42.632;23.198;2023-04-25T07:01:39;91196.88;;;10.63;98.76
34506;BME280;20748;42.632;23.198;2023-04-25T07:04:19;91198.44;;;10.64;100.00
34506;BME280;20748;42.632;23.198;2023-04-25T07:06:59;91200.59;;;10.61;100.00
34506;BME280;20748;42.632;23.198;2023-04-25T07:09:40;91197.53;;;10.81;100.00
34506;BME280;20748;42.632;23.198;2023-04-25T07:12:12;91197.03;;;10.87;100.00
34506;BME280;20748;42.632;23.198;2023-04-25T07:14:45;91201.53;;;10.99;100.00
34506;BME280;20748;42.632;23.198;2023-04-25T07:17:17;91197.16;;;10.91;97.19
34506;BME280;20748;42.632;23.198;2023-04-25T07:19:50;91206.13;;;11.03;98.49
34506;BME280;20748;42.632;23.198;2023-04-25T07:22:23;91195.34;;;11.04;98.35
34506;BME280;20748;42.632;23.198;2023-04-25T07:24:56;91200.78;;;11.20;98.06
34506;BME280;20748;42.632;23.198;2023-04-25T07:27:31;91189.84;;;11.52;100.00
34506;BME280;20748;42.632;23.198;2023-04-25T07:30:10;91196.84;;;11.60;96.00
34506;BME280;20748;42.632;23.198;2023-04-25T07:32:44;91195.34;;;11.72;93.52
34506;BME280;20748;42.632;23.198;2023-04-25T07:35:17;91200.03;;;11.78;93.68
34506;BME280;20748;42.632;23.198;2023-04-25T07:37:49;91191.22;;;11.71;90.91
34506;BME280;20748;42.632;23.198;2023-04-25T07:40:25;91185.44;;;11.65;93.61
34506;BME280;20748;42.632;23.198;2023-04-25T07:43:02;91189.56;;;11.66;91.56
34506;BME280;20748;42.632;23.198;2023-04-25T07:45:45;91186.66;;;11.92;92.13
34506;BME280;20748;42.632;23.198;2023-04-25T07:48:18;91185.41;;;12.24;88.57
34506;BME280;20748;42.632;23.198;2023-04-25T07:50:52;91188.75;;;12.49;85.72
34506;BME280;20748;42.632;23.198;2023-04-25T07:53:24;91178.94;;;12.46;85.86
34506;BME280;20748;42.632;23.198;2023-04-25T07:56:03;91178.13;;;12.70;85.27
34506;BME280;20748;42.632;23.198;2023-04-25T07:58:39;91178.72;;;12.92;87.04
34506;BME280;20748;42.632;23.198;2023-04-25T08:01:15;91179.72;;;12.87;83.53
34506;BME280;20748;42.632;23.198;2023-04-25T08:03:56;91186.00;;;13.11;80.38
34506;BME280;20748;42.632;23.198;2023-04-25T08:06:39;91181.88;;;13.26;77.96
34506;BME280;20748;42.632;23.198;2023-04-25T08:09:18;91176.16;;;13.37;79.66
34506;BME280;20748;42.632;23.198;2023-04-25T08:11:52;91181.47;;;13.69;78.84
34506;BME280;20748;42.632;23.198;2023-04-25T08:14:30;91186.56;;;13.78;76.93
34506;BME280;20748;42.632;23.198;2023-04-25T08:17:09;91178.63;;;13.90;73.15
34506;BME280;20748;42.632;23.198;2023-04-25T08:19:45;91171.84;;;13.89;75.83
34506;BME280;20748;42.632;23.198;2023-04-25T08:22:29;91166.88;;;14.16;75.59
34506;BME280;20748;42.632;23.198;2023-04-25T08:25:22;91159.44;;;14.38;76.03
34506;BME280;20748;42.632;23.198;2023-04-25T08:27:55;91178.19;;;14.36;74.63
34506;BME280;20748;42.632;23.198;2023-04-25T08:30:28;91180.97;;;14.12;74.36
34506;BME280;20748;42.632;23.198;2023-04-25T08:33:01;91164.66;;;14.02;76.28
34506;BME280;20748;42.632;23.198;2023-04-25T08:36:03;91181.59;;;14.05;77.45
34506;BME280;20748;42.632;23.198;2023-04-25T08:38:36;91186.16;;;13.76;72.17
34506;BME280;20748;42.632;23.198;2023-04-25T08:41:13;91179.97;;;13.84;71.37
34506;BME280;20748;42.632;23.198;2023-04-25T08:43:48;91175.91;;;14.19;70.70
34506;BME280;20748;42.632;23.198;2023-04-25T08:46:21;91176.00;;;14.22;71.06
34506;BME280;20748;42.632;23.198;2023-04-25T08:49:13;91164.63;;;14.70;71.87
34506;BME280;20748;42.632;23.198;2023-04-25T08:51:46;91172.09;;;15.04;70.37
34506;BME280;20748;42.632;23.198;2023-04-25T08:54:23;91189.50;;;15.12;61.77
34506;BME280;20748;42.632;23.198;2023-04-25T08:57:09;91174.91;;;15.15;63.32
34506;BME280;20748;42.632;23.198;2023-04-25T08:59:42;91178.09;;;15.24;64.07
34506;BME280;20748;42.632;23.198;2023-04-25T09:02:17;91163.06;;;15.44;63.69
34506;BME280;20748;42.632;23.198;2023-04-25T09:04:54;91159.19;;;15.81;64.09
34506;BME280;20748;42.632;23.198;2023-04-25T09:07:28;91170.47;;;15.39;61.51
34506;BME280;20748;42.632;23.198;2023-04-25T09:10:01;91172.00;;;15.40;61.17
34506;BME280;20748;42.632;23.198;2023-04-25T09:12:38;91163.78;;;15.22;63.13
34506;BME280;20748;42.632;23.198;2023-04-25T09:15:14;91162.50;;;15.35;66.29
34506;BME280;20748;42.632;23.198;2023-04-25T09:18:22;91160.66;;;15.36;65.86
34506;BME280;20748;42.632;23.198;2023-04-25T09:21:05;91161.28;;;15.72;68.13
34506;BME280;20748;42.632;23.198;2023-04-25T09:23:48;91163.97;;;15.33;71.13
34506;BME280;20748;42.632;23.198;2023-04-25T09:26:22;91171.38;;;15.27;68.25
34506;BME280;20748;42.632;23.198;2023-04-25T09:29:05;91169.28;;;15.36;66.58
34506;BME280;20748;42.632;23.198;2023-04-25T09:31:40;91168.00;;;15.07;66.50
34506;BME280;20748;42.632;23.198;2023-04-25T09:34:15;91158.41;;;15.14;66.62
34506;BME280;20748;42.632;23.198;2023-04-25T09:36:55;91171.75;;;15.06;69.23
34506;BME280;20748;42.632;23.198;2023-04-25T09:39:49;91165.63;;;15.21;64.87
34506;BME280;20748;42.632;23.198;2023-04-25T09:42:23;91166.69;;;14.97;66.70
34506;BME280;20748;42.632;23.198;2023-04-25T09:44:57;91168.47;;;15.32;68.32
34506;BME280;20748;42.632;23.198;2023-04-25T09:47:30;91166.19;;;15.30;68.70
34506;BME280;20748;42.632;23.198;2023-04-25T09:50:15;91168.19;;;15.17;62.85
34506;BME280;20748;42.632;23.198;2023-04-25T09:53:02;91173.06;;;14.96;56.41
34506;BME280;20748;42.632;23.198;2023-04-25T09:55:40;91177.47;;;14.92;59.18
34506;BME280;20748;42.632;23.198;2023-04-25T09:58:14;91192.31;;;14.32;63.66
34506;BME280;20748;42.632;23.198;2023-04-25T10:00:47;91207.03;;;13.88;62.58
34506;BME280;20748;42.632;23.198;2023-04-25T10:03:34;91201.72;;;13.85;69.83
34506;BME280;20748;42.632;23.198;2023-04-25T10:06:22;91199.66;;;13.78;71.35
34506;BME280;20748;42.632;23.198;2023-04-25T10:08:56;91191.38;;;13.60;70.34
34506;BME280;20748;42.632;23.198;2023-04-25T10:11:28;91168.06;;;13.42;73.18
34506;BME280;20748;42.632;23.198;2023-04-25T10:14:03;91174.63;;;13.48;72.12
34506;BME280;20748;42.632;23.198;2023-04-25T10:16:37;91177.84;;;13.74;67.28
34506;BME280;20748;42.632;23.198;2023-04-25T10:19:11;91187.16;;;14.03;68.50
34506;BME280;20748;42.632;23.198;2023-04-25T10:21:49;91175.41;;;13.97;67.72
34506;BME280;20748;42.632;23.198;2023-04-25T10:24:23;91174.72;;;14.16;69.84
34506;BME280;20748;42.632;23.198;2023-04-25T10:26:56;91167.84;;;14.44;69.78
34506;BME280;20748;42.632;23.198;2023-04-25T10:29:29;91145.75;;;14.64;64.90
34506;BME280;20748;42.632;23.198;2023-04-25T10:32:02;91154.00;;;14.63;66.20
34506;BME280;20748;42.632;23.198;2023-04-25T10:34:39;91169.13;;;14.70;62.12
34506;BME280;20748;42.632;23.198;2023-04-25T10:37:13;91162.94;;;14.26;60.62
34506;BME280;20748;42.632;23.198;2023-04-25T10:39:45;91162.22;;;13.93;63.70
34506;BME280;20748;42.632;23.198;2023-04-25T10:42:18;91164.56;;;13.82;64.73
34506;BME280;20748;42.632;23.198;2023-04-25T10:45:01;91163.47;;;13.67;65.80
34506;BME280;20748;42.632;23.198;2023-04-25T10:47:35;91152.06;;;13.92;68.54
34506;BME280;20748;42.632;23.198;2023-04-25T10:50:09;91158.75;;;14.21;68.17
34506;BME280;20748;42.632;23.198;2023-04-25T10:52:42;91158.56;;;14.14;64.88
34506;BME280;20748;42.632;23.198;2023-04-25T10:55:14;91147.38;;;14.33;66.70
34506;BME280;20748;42.632;23.198;2023-04-25T10:57:47;91147.50;;;14.41;64.17
34506;BME280;20748;42.632;23.198;2023-04-25T11:00:23;91131.84;;;14.44;65.44
34506;BME280;20748;42.632;23.198;2023-04-25T11:03:16;91135.31;;;14.68;64.19
34506;BME280;20748;42.632;23.198;2023-04-25T11:05:50;91140.03;;;14.59;63.12
34506;BME280;20748;42.632;23.198;2023-04-25T11:08:38;91133.19;;;14.74;60.54
34506;BME280;20748;42.632;23.198;2023-04-25T11:11:20;91126.53;;;14.96;56.04
34506;BME280;20748;42.632;23.198;2023-04-25T11:13:52;91119.59;;;15.08;55.61
34506;BME280;20748;42.632;23.198;2023-04-25T11:16:25;91120.06;;;15.56;58.88
34506;BME280;20748;42.632;23.198;2023-04-25T11:19:00;91118.63;;;15.82;56.12
34506;BME280;20748;42.632;23.198;2023-04-25T11:21:33;91122.88;;;15.91;55.43
34506;BME280;20748;42.632;23.198;2023-04-25T11:24:06;91123.13;;;16.05;58.62
34506;BME280;20748;42.632;23.198;2023-04-25T11:26:39;91121.94;;;15.79;56.34
34506;BME280;20748;42.632;23.198;2023-04-25T11:29:13;91125.78;;;16.05;55.28
34506;BME280;20748;42.632;23.198;2023-04-25T11:31:45;91130.31;;;16.08;58.46
34506;BME280;20748;42.632;23.198;2023-04-25T11:34:18;91143.19;;;15.90;56.17
34506;BME280;20748;42.632;23.198;2023-04-25T11:36:51;91149.81;;;15.37;61.72
34506;BME280;20748;42.632;23.198;2023-04-25T11:39:25;91172.28;;;15.15;67.06
34506;BME280;20748;42.632;23.198;2023-04-25T11:41:58;91175.44;;;14.33;72.35
34506;BME280;20748;42.632;23.198;2023-04-25T11:44:32;91162.72;;;13.83;77.00
34506;BME280;20748;42.632;23.198;2023-04-25T11:47:05;91144.88;;;14.05;81.86
34506;BME280;20748;42.632;23.198;2023-04-25T11:49:37;91151.81;;;13.97;80.58
34506;BME280;20748;42.632;23.198;2023-04-25T11:52:10;91144.41;;;13.10;90.58
34506;BME280;20748;42.632;23.198;2023-04-25T11:54:44;91131.22;;;13.06;99.10
34506;BME280;20748;42.632;23.198;2023-04-25T11:57:19;91132.59;;;13.16;96.70
34506;BME280;20748;42.632;23.198;2023-04-25T11:59:51;91123.41;;;13.51;95.09
34506;BME280;20748;42.632;23.198;2023-04-25T12:02:24;91118.38;;;13.46;86.52
34506;BME280;20748;42.632;23.198;2023-04-25T12:04:59;91120.66;;;13.47;84.44
34506;BME280;20748;42.632;23.198;2023-04-25T12:07:52;91133.97;;;13.54;80.60
34506;BME280;20748;42.632;23.198;2023-04-25T12:10:25;91134.50;;;13.32;85.22
34506;BME280;20748;42.632;23.198;2023-04-25T12:12:57;91130.56;;;13.54;88.37
34506;BME280;20748;42.632;23.198;2023-04-25T12:15:30;91133.28;;;13.58;91.17
34506;BME280;20748;42.632;23.198;2023-04-25T12:18:06;91129.66;;;13.78;86.14
34506;BME280;20748;42.632;23.198;2023-04-25T12:20:38;91129.75;;;13.82;89.40
34506;BME280;20748;42.632;23.198;2023-04-25T12:23:12;91133.53;;;14.01;87.21
34506;BME280;20748;42.632;23.198;2023-04-25T12:25:44;91125.88;;;14.28;82.20
34506;BME280;20748;42.632;23.198;2023-04-25T12:28:19;91135.72;;;14.50;82.09
34506;BME280;20748;42.632;23.198;2023-04-25T12:30:57;91131.84;;;14.80;78.42
34506;BME280;20748;42.632;23.198;2023-04-25T12:33:32;91148.81;;;14.31;63.97
34506;BME280;20748;42.632;23.198;2023-04-25T12:36:05;91138.91;;;14.60;64.56
34506;BME280;20748;42.632;23.198;2023-04-25T12:46:19;91138.59;;;14.61;62.54
34506;BME280;20748;42.632;23.198;2023-04-25T12:48:51;91136.97;;;14.93;65.04
34506;BME280;20748;42.632;23.198;2023-04-25T12:51:24;91140.91;;;15.22;62.89
34506;BME280;20748;42.632;23.198;2023-04-25T12:53:57;91141.00;;;15.49;62.66
34506;BME280;20748;42.632;23.198;2023-04-25T12:56:30;91142.09;;;15.25;65.06
34506;BME280;20748;42.632;23.198;2023-04-25T12:59:03;91131.78;;;14.96;67.58
34506;BME280;20748;42.632;23.198;2023-04-25T13:01:36;91141.00;;;14.70;70.31
34506;BME280;20748;42.632;23.198;2023-04-25T13:04:08;91141.91;;;14.06;73.49
34506;BME280;20748;42.632;23.198;2023-04-25T13:06:41;91126.16;;;13.13;75.96
34506;BME280;20748;42.632;23.198;2023-04-25T13:09:13;91140.22;;;13.21;78.50
34506;BME280;20748;42.632;23.198;2023-04-25T13:11:46;91145.25;;;12.98;80.17
34506;BME280;20748;42.632;23.198;2023-04-25T13:14:19;91147.44;;;12.83;83.52
34506;BME280;20748;42.632;23.198;2023-04-25T13:16:52;91143.25;;;12.66;86.48
34506;BME280;20748;42.632;23.198;2023-04-25T13:19:25;91153.53;;;12.46;89.89
34506;BME280;20748;42.632;23.198;2023-04-25T13:21:58;91168.91;;;12.48;91.77
34506;BME280;20748;42.632;23.198;2023-04-25T13:24:31;91162.56;;;12.49;93.28
34506;BME280;20748;42.632;23.198;2023-04-25T13:27:03;91176.22;;;12.55;95.09
34506;BME280;20748;42.632;23.198;2023-04-25T13:29:35;91184.94;;;12.59;94.12
34506;BME280;20748;42.632;23.198;2023-04-25T13:32:10;91174.88;;;12.61;95.22
34506;BME280;20748;42.632;23.198;2023-04-25T13:34:42;91167.94;;;12.40;97.50
34506;BME280;20748;42.632;23.198;2023-04-25T13:37:15;91168.72;;;12.28;100.00
34506;BME280;20748;42.632;23.198;2023-04-25T13:39:47;91162.41;;;12.17;98.94
34506;BME280;20748;42.632;23.198;2023-04-25T13:42:20;91161.72;;;12.20;97.64
34506;BME280;20748;42.632;23.198;2023-04-25T13:44:52;91155.66;;;12.16;98.58